sensor_id;sensor_type;location;lat;lon;timestamp;pressure;altitude;pressure_sealevel;temperature;humidity
58473;BME280;44775;51.564;5.460;2023-02-13T12:15:36;103392.97;;;18.09;51.96
58473;BME280;44775;51.564;5.460;2023-02-13T12:18:03;103394.72;;;18.01;51.87
58473;BME280;44775;51.564;5.460;2023-02-13T12:20:42;103380.50;;;17.99;53.98
58473;BME280;44775;51.564;5.460;2023-02-13T12:23:28;103386.53;;;18.10;51.69
58473;BME280;44775;51.564;5.460;2023-02-13T12:31:38;103371.31;;;18.09;53.57
58473;BME280;44775;51.564;5.460;2023-02-13T12:39:54;103358.09;;;17.88;53.22
58473;BME280;44775;51.564;5.460;2023-02-13T12:48:25;103359.00;;;18.41;53.21
58473;BME280;44775;51.564;5.460;2023-02-13T12:56:53;103351.66;;;18.59;49.68
58473;BME280;44775;51.564;5.460;2023-02-13T13:09:46;103332.06;;;17.69;50.31
58473;BME280;44775;51.564;5.460;2023-02-13T13:12:40;103327.56;;;17.60;52.43
58473;BME280;44775;51.564;5.460;2023-02-13T13:18:19;103337.22;;;17.99;52.65
58473;BME280;44775;51.564;5.460;2023-02-13T13:28:26;103317.91;;;18.46;48.46
58473;BME280;44775;51.564;5.460;2023-02-13T13:30:54;103325.78;;;18.31;48.88
58473;BME280;44775;51.564;5.460;2023-02-13T13:33:24;103308.81;;;17.77;49.45
58473;BME280;44775;51.564;5.460;2023-02-13T13:39:14;103306.78;;;17.61;49.74
58473;BME280;44775;51.564;5.460;2023-02-13T13:47:39;103303.44;;;17.31;50.32
58473;BME280;44775;51.564;5.460;2023-02-13T13:50:01;103288.31;;;17.20;50.17
58473;BME280;44775;51.564;5.460;2023-02-13T13:52:35;103297.16;;;17.58;49.82
58473;BME280;44775;51.564;5.460;2023-02-13T13:55:04;103285.94;;;17.35;50.64
58473;BME280;44775;51.564;5.460;2023-02-13T14:02:40;103292.25;;;17.44;49.93
58473;BME280;44775;51.564;5.460;2023-02-13T14:07:39;103289.19;;;17.57;49.22
58473;BME280;44775;51.564;5.460;2023-02-13T14:10:57;103284.06;;;17.89;50.32
58473;BME280;44775;51.564;5.460;2023-02-13T14:13:28;103277.88;;;17.61;50.03
58473;BME280;44775;51.564;5.460;2023-02-13T14:15:53;103269.19;;;17.32;50.46
58473;BME280;44775;51.564;5.460;2023-02-13T14:18:24;103275.13;;;17.35;51.00
58473;BME280;44775;51.564;5.460;2023-02-13T14:20:53;103275.69;;;17.39;51.20
58473;BME280;44775;51.564;5.460;2023-02-13T14:28:35;103267.44;;;18.02;49.38
58473;BME280;44775;51.564;5.460;2023-02-13T14:31:23;103268.59;;;18.00;49.55
58473;BME280;44775;51.564;5.460;2023-02-13T14:36:57;103264.00;;;17.56;49.97
58473;BME280;44775;51.564;5.460;2023-02-13T14:39:30;103263.13;;;17.38;51.03
58473;BME280;44775;51.564;5.460;2023-02-13T14:41:58;103269.19;;;17.32;51.55
58473;BME280;44775;51.564;5.460;2023-02-13T14:47:02;103267.22;;;17.24;50.92
58473;BME280;44775;51.564;5.460;2023-02-13T14:49:30;103260.84;;;17.25;51.80
58473;BME280;44775;51.564;5.460;2023-02-13T14:52:02;103265.72;;;17.39;50.98
58473;BME280;44775;51.564;5.460;2023-02-13T14:54:35;103260.06;;;17.33;50.75
58473;BME280;44775;51.564;5.460;2023-02-13T14:57:16;103261.38;;;17.46;51.20
58473;BME280;44775;51.564;5.460;2023-02-13T14:59:46;103262.00;;;17.40;50.82
58473;BME280;44775;51.564;5.460;2023-02-13T15:02:25;103257.13;;;16.81;51.20
58473;BME280;44775;51.564;5.460;2023-02-13T15:05:11;103254.06;;;16.66;52.32
58473;BME280;44775;51.564;5.460;2023-02-13T15:07:45;103249.66;;;16.74;53.39
58473;BME280;44775;51.564;5.460;2023-02-13T15:13:00;103251.16;;;16.22;54.47
58473;BME280;44775;51.564;5.460;2023-02-13T15:15:27;103253.63;;;15.96;55.09
58473;BME280;44775;51.564;5.460;2023-02-13T15:17:59;103250.69;;;15.79;55.61
58473;BME280;44775;51.564;5.460;2023-02-13T15:20:26;103243.16;;;15.44;56.33
58473;BME280;44775;51.564;5.460;2023-02-13T15:22:53;103233.53;;;15.03;57.55
58473;BME280;44775;51.564;5.460;2023-02-13T15:25:32;103238.13;;;14.81;58.94
58473;BME280;44775;51.564;5.460;2023-02-13T15:27:59;103235.94;;;14.25;60.88
58473;BME280;44775;51.564;5.460;2023-02-13T15:30:27;103224.84;;;13.88;62.40
58473;BME280;44775;51.564;5.460;2023-02-13T15:32:55;103228.31;;;13.58;65.67
58473;BME280;44775;51.564;5.460;2023-02-13T15:37:48;103215.38;;;13.19;67.40
58473;BME280;44775;51.564;5.460;2023-02-13T15:40:15;103211.22;;;12.94;69.26
58473;BME280;44775;51.564;5.460;2023-02-13T15:42:41;103219.16;;;12.85;70.82
58473;BME280;44775;51.564;5.460;2023-02-13T15:45:13;103220.03;;;12.74;70.39
58473;BME280;44775;51.564;5.460;2023-02-13T15:47:39;103215.19;;;12.57;71.60
58473;BME280;44775;51.564;5.460;2023-02-13T15:50:32;103217.75;;;12.47;72.80
58473;BME280;44775;51.564;5.460;2023-02-13T15:52:59;103218.13;;;12.31;73.38
58473;BME280;44775;51.564;5.460;2023-02-13T15:55:30;103213.16;;;12.15;74.20
58473;BME280;44775;51.564;5.460;2023-02-13T15:57:59;103219.84;;;12.10;76.36
58473;BME280;44775;51.564;5.460;2023-02-13T16:00:28;103219.72;;;12.00;75.67
58473;BME280;44775;51.564;5.460;2023-02-13T16:02:55;103209.94;;;11.88;77.89
58473;BME280;44775;51.564;5.460;2023-02-13T16:05:23;103213.94;;;11.82;77.85
58473;BME280;44775;51.564;5.460;2023-02-13T16:07:52;103206.59;;;11.73;78.02
58473;BME280;44775;51.564;5.460;2023-02-13T16:10:31;103199.88;;;11.67;78.64
58473;BME280;44775;51.564;5.460;2023-02-13T16:12:59;103200.00;;;11.54;80.02
58473;BME280;44775;51.564;5.460;2023-02-13T16:15:27;103208.66;;;11.58;78.36
58473;BME280;44775;51.564;5.460;2023-02-13T16:17:54;103209.41;;;11.36;80.94
58473;BME280;44775;51.564;5.460;2023-02-13T16:20:25;103195.13;;;11.24;82.39
58473;BME280;44775;51.564;5.460;2023-02-13T16:22:52;103202.88;;;11.16;82.54
58473;BME280;44775;51.564;5.460;2023-02-13T16:25:23;103204.22;;;11.10;83.63
58473;BME280;44775;51.564;5.460;2023-02-13T16:27:56;103204.97;;;11.00;84.68
58473;BME280;44775;51.564;5.460;2023-02-13T16:30:33;103201.06;;;10.93;84.54
58473;BME280;44775;51.564;5.460;2023-02-13T16:35:44;103198.91;;;10.74;86.38
58473;BME280;44775;51.564;5.460;2023-02-13T16:38:31;103204.69;;;10.68;85.98
58473;BME280;44775;51.564;5.460;2023-02-13T16:43:54;103209.78;;;10.47;88.35
58473;BME280;44775;51.564;5.460;2023-02-13T16:46:24;103203.38;;;10.36;91.72
58473;BME280;44775;51.564;5.460;2023-02-13T16:49:00;103208.56;;;10.25;91.07
58473;BME280;44775;51.564;5.460;2023-02-13T16:56:52;103211.59;;;9.95;94.61
58473;BME280;44775;51.564;5.460;2023-02-13T17:04:28;103209.22;;;9.65;96.36
58473;BME280;44775;51.564;5.460;2023-02-13T17:06:54;103208.56;;;9.49;96.98
58473;BME280;44775;51.564;5.460;2023-02-13T17:09:20;103198.91;;;9.33;98.38
58473;BME280;44775;51.564;5.460;2023-02-13T17:11:50;103206.16;;;9.31;99.31
58473;BME280;44775;51.564;5.460;2023-02-13T17:14:16;103212.31;;;9.19;100.00
58473;BME280;44775;51.564;5.460;2023-02-13T17:16:41;103202.25;;;9.10;100.00
58473;BME280;44775;51.564;5.460;2023-02-13T17:19:07;103207.53;;;8.97;100.00
58473;BME280;44775;51.564;5.460;2023-02-13T17:21:33;103207.72;;;8.94;100.00
58473;BME280;44775;51.564;5.460;2023-02-13T17:23:59;103200.75;;;8.79;100.00
58473;BME280;44775;51.564;5.460;2023-02-13T17:26:25;103211.69;;;8.74;100.00
58473;BME280;44775;51.564;5.460;2023-02-13T17:28:50;103206.66;;;8.69;100.00
58473;BME280;44775;51.564;5.460;2023-02-13T17:31:16;103211.72;;;8.60;100.00
58473;BME280;44775;51.564;5.460;2023-02-13T17:33:41;103219.53;;;8.48;100.00
58473;BME280;44775;51.564;5.460;2023-02-13T17:36:11;103218.97;;;8.43;100.00
58473;BME280;44775;51.564;5.460;2023-02-13T17:38:37;103219.41;;;8.36;100.00
58473;BME280;44775;51.564;5.460;2023-02-13T17:41:03;103215.25;;;8.32;100.00
58473;BME280;44775;51.564;5.460;2023-02-13T17:43:28;103219.06;;;8.27;100.00
58473;BME280;44775;51.564;5.460;2023-02-13T17:45:54;103215.16;;;8.19;100.00
58473;BME280;44775;51.564;5.460;2023-02-13T17:48:20;103213.94;;;8.10;100.00
58473;BME280;44775;51.564;5.460;2023-02-13T17:50:46;103220.56;;;8.03;100.00
58473;BME280;44775;51.564;5.460;2023-02-13T17:53:26;103213.88;;;7.96;100.00
58473;BME280;44775;51.564;5.460;2023-02-13T17:55:54;103215.22;;;7.89;100.00
58473;BME280;44775;51.564;5.460;2023-02-13T17:58:20;103220.91;;;7.82;100.00
58473;BME280;44775;51.564;5.460;2023-02-13T18:00:46;103210.06;;;7.71;100.00
58473;BME280;44775;51.564;5.460;2023-02-13T18:03:11;103214.81;;;7.66;100.00
58473;BME280;44775;51.564;5.460;2023-02-13T18:05:37;103213.44;;;7.59;100.00
58473;BME280;44775;51.564;5.460;2023-02-13T18:08:02;103209.25;;;7.55;100.00
58473;BME280;44775;51.564;5.460;2023-02-13T18:10:29;103217.53;;;7.50;100.00
58473;BME280;44775;51.564;5.460;2023-02-13T18:12:56;103210.00;;;7.43;100.00
58473;BME280;44775;51.564;5.460;2023-02-13T18:15:28;103211.22;;;7.37;100.00
58473;BME280;44775;51.564;5.460;2023-02-13T18:17:54;103211.97;;;7.39;100.00
58473;BME280;44775;51.564;5.460;2023-02-13T18:20:19;103209.00;;;7.29;100.00
58473;BME280;44775;51.564;5.460;2023-02-13T18:22:45;103216.31;;;7.26;100.00
58473;BME280;44775;51.564;5.460;2023-02-13T18:25:11;103209.69;;;7.17;100.00
58473;BME280;44775;51.564;5.460;2023-02-13T18:27:37;103207.56;;;7.08;100.00
58473;BME280;44775;51.564;5.460;2023-02-13T18:30:03;103209.13;;;6.96;100.00
58473;BME280;44775;51.564;5.460;2023-02-13T18:32:29;103209.56;;;6.89;100.00
58473;BME280;44775;51.564;5.460;2023-02-13T18:34:54;103209.81;;;6.84;100.00
58473;BME280;44775;51.564;5.460;2023-02-13T18:37:20;103214.63;;;6.77;100.00
58473;BME280;44775;51.564;5.460;2023-02-13T18:39:45;103207.09;;;6.70;100.00
58473;BME280;44775;51.564;5.460;2023-02-13T18:42:11;103209.38;;;6.60;100.00
58473;BME280;44775;51.564;5.460;2023-02-13T18:44:37;103212.22;;;6.57;100.00
58473;BME280;44775;51.564;5.460;2023-02-13T18:47:03;103201.34;;;6.46;100.00
58473;BME280;44775;51.564;5.460;2023-02-13T18:49:28;103200.53;;;6.44;100.00
58473;BME280;44775;51.564;5.460;2023-02-13T18:51:54;103197.13;;;6.42;100.00
58473;BME280;44775;51.564;5.460;2023-02-13T18:54:20;103200.38;;;6.47;100.00
58473;BME280;44775;51.564;5.460;2023-02-13T18:56:46;103198.22;;;6.37;100.00
58473;BME280;44775;51.564;5.460;2023-02-13T18:59:12;103197.00;;;6.27;100.00
58473;BME280;44775;51.564;5.460;2023-02-13T19:01:37;103192.28;;;6.17;100.00
58473;BME280;44775;51.564;5.460;2023-02-13T19:04:03;103192.53;;;6.12;100.00
58473;BME280;44775;51.564;5.460;2023-02-13T19:06:29;103198.31;;;6.03;100.00
58473;BME280;44775;51.564;5.460;2023-02-13T19:08:55;103190.69;;;5.97;100.00
58473;BME280;44775;51.564;5.460;2023-02-13T19:11:22;103193.63;;;5.90;100.00
58473;BME280;44775;51.564;5.460;2023-02-13T19:13:52;103192.78;;;5.90;100.00
58473;BME280;44775;51.564;5.460;2023-02-13T19:16:18;103190.47;;;5.84;100.00
58473;BME280;44775;51.564;5.460;2023-02-13T19:18:46;103198.94;;;5.73;100.00
58473;BME280;44775;51.564;5.460;2023-02-13T19:21:13;103190.06;;;5.57;100.00
58473;BME280;44775;51.564;5.460;2023-02-13T19:23:39;103196.56;;;5.51;100.00
58473;BME280;44775;51.564;5.460;2023-02-13T19:26:10;103193.13;;;5.49;100.00
58473;BME280;44775;51.564;5.460;2023-02-13T19:28:36;103187.91;;;5.48;100.00
58473;BME280;44775;51.564;5.460;2023-02-13T19:31:06;103188.28;;;5.40;100.00
58473;BME280;44775;51.564;5.460;2023-02-13T19:33:33;103193.50;;;5.41;100.00
58473;BME280;44775;51.564;5.460;2023-02-13T19:36:00;103194.91;;;5.31;100.00
58473;BME280;44775;51.564;5.460;2023-02-13T19:38:26;103188.06;;;5.27;100.00
58473;BME280;44775;51.564;5.460;2023-02-13T19:40:51;103185.94;;;5.16;100.00
58473;BME280;44775;51.564;5.460;2023-02-13T19:43:17;103196.84;;;5.10;100.00
58473;BME280;44775;51.564;5.460;2023-02-13T19:45:42;103190.19;;;5.02;100.00
58473;BME280;44775;51.564;5.460;2023-02-13T19:48:08;103188.16;;;4.89;100.00
58473;BME280;44775;51.564;5.460;2023-02-13T19:50:34;103193.66;;;4.85;100.00
58473;BME280;44775;51.564;5.460;2023-02-13T19:53:00;103191.38;;;4.77;100.00
58473;BME280;44775;51.564;5.460;2023-02-13T19:55:28;103196.97;;;4.71;100.00
58473;BME280;44775;51.564;5.460;2023-02-13T19:57:54;103186.94;;;4.59;100.00
58473;BME280;44775;51.564;5.460;2023-02-13T20:00:19;103189.81;;;4.54;100.00
58473;BME280;44775;51.564;5.460;2023-02-13T20:02:45;103188.69;;;4.60;100.00
58473;BME280;44775;51.564;5.460;2023-02-13T20:05:10;103191.19;;;4.63;100.00
58473;BME280;44775;51.564;5.460;2023-02-13T20:07:36;103189.16;;;4.68;100.00
58473;BME280;44775;51.564;5.460;2023-02-13T20:10:01;103203.22;;;4.70;100.00
58473;BME280;44775;51.564;5.460;2023-02-13T20:12:27;103202.25;;;4.71;100.00
58473;BME280;44775;51.564;5.460;2023-02-13T20:14:55;103196.25;;;4.67;100.00
58473;BME280;44775;51.564;5.460;2023-02-13T20:17:20;103199.75;;;4.68;100.00
58473;BME280;44775;51.564;5.460;2023-02-13T20:19:47;103203.97;;;4.72;100.00
58473;BME280;44775;51.564;5.460;2023-02-13T20:22:13;103194.69;;;4.63;100.00
58473;BME280;44775;51.564;5.460;2023-02-13T20:24:41;103202.13;;;4.55;100.00
58473;BME280;44775;51.564;5.460;2023-02-13T20:27:07;103198.91;;;4.48;100.00
58473;BME280;44775;51.564;5.460;2023-02-13T20:29:33;103208.19;;;4.38;100.00
58473;BME280;44775;51.564;5.460;2023-02-13T20:31:59;103201.47;;;4.31;100.00
58473;BME280;44775;51.564;5.460;2023-02-13T20:34:24;103195.53;;;4.26;100.00
58473;BME280;44775;51.564;5.460;2023-02-13T20:36:50;103195.09;;;4.35;100.00
58473;BME280;44775;51.564;5.460;2023-02-13T20:39:15;103184.69;;;4.32;100.00
58473;BME280;44775;51.564;5.460;2023-02-13T20:41:41;103196.59;;;4.41;100.00
58473;BME280;44775;51.564;5.460;2023-02-13T20:44:10;103190.53;;;4.39;100.00
58473;BME280;44775;51.564;5.460;2023-02-13T20:46:37;103204.50;;;4.42;100.00
58473;BME280;44775;51.564;5.460;2023-02-13T20:49:04;103192.16;;;4.41;100.00
58473;BME280;44775;51.564;5.460;2023-02-13T20:51:29;103200.69;;;4.29;100.00
58473;BME280;44775;51.564;5.460;2023-02-13T20:53:55;103199.31;;;4.20;100.00
58473;BME280;44775;51.564;5.460;2023-02-13T20:56:23;103197.03;;;4.13;100.00
58473;BME280;44775;51.564;5.460;2023-02-13T20:58:50;103194.91;;;4.00;100.00
58473;BME280;44775;51.564;5.460;2023-02-13T21:01:27;103208.63;;;3.90;100.00
58473;BME280;44775;51.564;5.460;2023-02-13T21:03:53;103198.84;;;3.71;100.00
58473;BME280;44775;51.564;5.460;2023-02-13T21:08:46;103195.31;;;3.50;100.00
58473;BME280;44775;51.564;5.460;2023-02-13T21:11:11;103197.25;;;3.47;100.00
58473;BME280;44775;51.564;5.460;2023-02-13T21:13:37;103199.22;;;3.42;100.00
58473;BME280;44775;51.564;5.460;2023-02-13T21:16:19;103205.28;;;3.44;100.00
58473;BME280;44775;51.564;5.460;2023-02-13T21:18:47;103201.28;;;3.55;100.00
58473;BME280;44775;51.564;5.460;2023-02-13T21:21:13;103199.28;;;3.61;100.00
58473;BME280;44775;51.564;5.460;2023-02-13T21:23:39;103204.19;;;3.70;100.00
58473;BME280;44775;51.564;5.460;2023-02-13T21:26:07;103207.91;;;3.86;100.00
58473;BME280;44775;51.564;5.460;2023-02-13T21:28:33;103205.03;;;3.91;100.00
58473;BME280;44775;51.564;5.460;2023-02-13T21:31:07;103201.41;;;3.93;100.00
58473;BME280;44775;51.564;5.460;2023-02-13T21:33:33;103202.25;;;3.94;100.00
58473;BME280;44775;51.564;5.460;2023-02-13T21:36:03;103212.19;;;3.89;100.00
58473;BME280;44775;51.564;5.460;2023-02-13T21:38:29;103200.34;;;3.77;100.00
58473;BME280;44775;51.564;5.460;2023-02-13T21:41:12;103205.38;;;3.63;100.00
58473;BME280;44775;51.564;5.460;2023-02-13T21:43:38;103205.78;;;3.53;100.00
58473;BME280;44775;51.564;5.460;2023-02-13T21:46:10;103213.22;;;3.44;100.00
58473;BME280;44775;51.564;5.460;2023-02-13T21:48:36;103204.53;;;3.42;100.00
58473;BME280;44775;51.564;5.460;2023-02-13T21:51:10;103209.56;;;3.48;100.00
58473;BME280;44775;51.564;5.460;2023-02-13T21:53:36;103210.16;;;3.54;100.00
58473;BME280;44775;51.564;5.460;2023-02-13T21:56:03;103202.78;;;3.41;100.00
58473;BME280;44775;51.564;5.460;2023-02-13T21:58:34;103209.13;;;3.37;100.00
58473;BME280;44775;51.564;5.460;2023-02-13T22:01:00;103200.59;;;3.30;100.00
58473;BME280;44775;51.564;5.460;2023-02-13T22:03:26;103201.16;;;3.16;100.00
58473;BME280;44775;51.564;5.460;2023-02-13T22:05:51;103187.84;;;2.97;100.00
58473;BME280;44775;51.564;5.460;2023-02-13T22:08:17;103187.97;;;2.94;100.00
58473;BME280;44775;51.564;5.460;2023-02-13T22:10:51;103185.09;;;3.00;100.00
58473;BME280;44775;51.564;5.460;2023-02-13T22:13:17;103189.97;;;3.10;100.00
58473;BME280;44775;51.564;5.460;2023-02-13T22:15:42;103189.19;;;3.07;100.00
58473;BME280;44775;51.564;5.460;2023-02-13T22:18:07;103184.16;;;3.01;100.00
58473;BME280;44775;51.564;5.460;2023-02-13T22:20:34;103188.88;;;2.93;100.00
58473;BME280;44775;51.564;5.460;2023-02-13T22:22:59;103190.03;;;2.86;100.00
58473;BME280;44775;51.564;5.460;2023-02-13T22:25:24;103189.75;;;2.72;100.00
58473;BME280;44775;51.564;5.460;2023-02-13T22:27:50;103187.69;;;2.56;100.00
58473;BME280;44775;51.564;5.460;2023-02-13T22:30:15;103189.03;;;2.45;100.00
58473;BME280;44775;51.564;5.460;2023-02-13T22:32:41;103186.69;;;2.37;100.00
58473;BME280;44775;51.564;5.460;2023-02-13T22:35:07;103182.09;;;2.19;100.00
58473;BME280;44775;51.564;5.460;2023-02-13T22:37:33;103191.00;;;2.16;100.00
58473;BME280;44775;51.564;5.460;2023-02-13T22:39:59;103184.38;;;2.04;100.00
58473;BME280;44775;51.564;5.460;2023-02-13T22:42:24;103180.91;;;2.02;100.00
58473;BME280;44775;51.564;5.460;2023-02-13T22:44:50;103186.06;;;2.07;100.00
58473;BME280;44775;51.564;5.460;2023-02-13T22:47:16;103180.03;;;2.03;100.00
58473;BME280;44775;51.564;5.460;2023-02-13T22:49:41;103184.59;;;1.98;100.00
58473;BME280;44775;51.564;5.460;2023-02-13T22:52:07;103187.63;;;1.87;100.00
58473;BME280;44775;51.564;5.460;2023-02-13T22:54:35;103181.31;;;1.92;100.00
58473;BME280;44775;51.564;5.460;2023-02-13T22:57:00;103171.16;;;1.81;100.00
58473;BME280;44775;51.564;5.460;2023-02-13T22:59:25;103176.75;;;1.72;100.00
58473;BME280;44775;51.564;5.460;2023-02-13T23:01:51;103177.47;;;1.77;100.00
58473;BME280;44775;51.564;5.460;2023-02-13T23:04:16;103182.34;;;1.87;100.00
58473;BME280;44775;51.564;5.460;2023-02-13T23:06:42;103173.91;;;1.78;100.00
58473;BME280;44775;51.564;5.460;2023-02-13T23:09:07;103174.63;;;1.83;100.00
58473;BME280;44775;51.564;5.460;2023-02-13T23:11:33;103168.00;;;1.71;100.00
58473;BME280;44775;51.564;5.460;2023-02-13T23:14:21;103180.41;;;1.68;100.00
58473;BME280;44775;51.564;5.460;2023-02-13T23:16:48;103173.53;;;1.63;100.00
58473;BME280;44775;51.564;5.460;2023-02-13T23:19:32;103178.91;;;1.60;100.00
58473;BME280;44775;51.564;5.460;2023-02-13T23:21:58;103177.31;;;1.56;100.00
58473;BME280;44775;51.564;5.460;2023-02-13T23:24:23;103168.78;;;1.48;100.00
58473;BME280;44775;51.564;5.460;2023-02-13T23:26:49;103164.72;;;1.39;100.00
58473;BME280;44775;51.564;5.460;2023-02-13T23:29:14;103161.41;;;1.33;100.00
58473;BME280;44775;51.564;5.460;2023-02-13T23:31:39;103168.59;;;1.28;100.00
58473;BME280;44775;51.564;5.460;2023-02-13T23:34:05;103175.00;;;1.21;100.00
58473;BME280;44775;51.564;5.460;2023-02-13T23:36:30;103159.47;;;1.11;100.00
58473;BME280;44775;51.564;5.460;2023-02-13T23:38:56;103164.66;;;1.14;100.00
58473;BME280;44775;51.564;5.460;2023-02-13T23:41:21;103165.06;;;1.02;100.00
58473;BME280;44775;51.564;5.460;2023-02-13T23:43:46;103171.75;;;1.12;100.00
58473;BME280;44775;51.564;5.460;2023-02-13T23:46:12;103165.63;;;1.12;100.00
58473;BME280;44775;51.564;5.460;2023-02-13T23:48:37;103161.72;;;0.97;100.00
58473;BME280;44775;51.564;5.460;2023-02-13T23:51:03;103163.50;;;0.97;100.00
58473;BME280;44775;51.564;5.460;2023-02-13T23:53:28;103164.84;;;0.82;100.00
58473;BME280;44775;51.564;5.460;2023-02-13T23:55:54;103173.53;;;0.84;100.00
58473;BME280;44775;51.564;5.460;2023-02-13T23:58:19;103174.56;;;0.80;100.00
